sensor_id;sensor_type;location;lat;lon;timestamp;pressure;altitude;pressure_sealevel;temperature;humidity
46394;BME280;32099;53.588;10.176;2022-08-11T00:01:49;102163.03;;;18.72;59.24
46394;BME280;32099;53.588;10.176;2022-08-11T00:04:14;102157.06;;;18.69;59.57
46394;BME280;32099;53.588;10.176;2022-08-11T00:06:40;102160.22;;;18.65;59.46
46394;BME280;32099;53.588;10.176;2022-08-11T00:09:11;102149.59;;;18.62;59.48
46394;BME280;32099;53.588;10.176;2022-08-11T00:11:38;102149.13;;;18.59;59.67
46394;BME280;32099;53.588;10.176;2022-08-11T00:14:12;102146.78;;;18.56;59.87
46394;BME280;32099;53.588;10.176;2022-08-11T00:16:37;102156.31;;;18.53;59.94
46394;BME280;32099;53.588;10.176;2022-08-11T00:19:03;102152.25;;;18.49;60.02
46394;BME280;32099;53.588;10.176;2022-08-11T00:21:28;102159.03;;;18.46;60.24
46394;BME280;32099;53.588;10.176;2022-08-11T00:23:59;102155.81;;;18.43;60.19
46394;BME280;32099;53.588;10.176;2022-08-11T00:26:24;102162.81;;;18.39;60.18
46394;BME280;32099;53.588;10.176;2022-08-11T00:28:50;102159.56;;;18.35;60.29
46394;BME280;32099;53.588;10.176;2022-08-11T00:31:25;102157.03;;;18.33;60.47
46394;BME280;32099;53.588;10.176;2022-08-11T00:33:52;102162.94;;;18.30;60.65
46394;BME280;32099;53.588;10.176;2022-08-11T00:36:18;102163.38;;;18.27;60.64
46394;BME280;32099;53.588;10.176;2022-08-11T00:38:44;102159.06;;;18.25;61.05
46394;BME280;32099;53.588;10.176;2022-08-11T00:41:27;102163.31;;;18.21;60.79
46394;BME280;32099;53.588;10.176;2022-08-11T00:44:06;102156.47;;;18.16;60.99
46394;BME280;32099;53.588;10.176;2022-08-11T00:46:54;102158.13;;;18.11;61.25
46394;BME280;32099;53.588;10.176;2022-08-11T00:49:37;102150.66;;;18.04;61.36
46394;BME280;32099;53.588;10.176;2022-08-11T00:52:07;102152.94;;;18.01;61.66
46394;BME280;32099;53.588;10.176;2022-08-11T00:57:24;102161.97;;;17.95;61.57
46394;BME280;32099;53.588;10.176;2022-08-11T01:00:18;102153.44;;;17.89;61.81
46394;BME280;32099;53.588;10.176;2022-08-11T01:02:56;102162.13;;;17.86;61.97
46394;BME280;32099;53.588;10.176;2022-08-11T01:05:40;102162.91;;;17.80;62.10
46394;BME280;32099;53.588;10.176;2022-08-11T01:08:27;102154.84;;;17.79;62.08
46394;BME280;32099;53.588;10.176;2022-08-11T01:16:07;102171.09;;;17.73;62.21
46394;BME280;32099;53.588;10.176;2022-08-11T01:23:56;102172.28;;;17.64;62.64
46394;BME280;32099;53.588;10.176;2022-08-11T01:29:06;102170.50;;;17.56;62.80
46394;BME280;32099;53.588;10.176;2022-08-11T01:31:37;102176.22;;;17.55;62.98
46394;BME280;32099;53.588;10.176;2022-08-11T01:34:15;102171.09;;;17.52;62.89
46394;BME280;32099;53.588;10.176;2022-08-11T01:37:01;102172.13;;;17.51;62.99
46394;BME280;32099;53.588;10.176;2022-08-11T01:45:15;102171.13;;;17.37;63.49
46394;BME280;32099;53.588;10.176;2022-08-11T01:47:54;102162.59;;;17.32;63.62
46394;BME280;32099;53.588;10.176;2022-08-11T01:50:25;102171.25;;;17.29;63.65
46394;BME280;32099;53.588;10.176;2022-08-11T01:53:09;102169.94;;;17.24;63.78
46394;BME280;32099;53.588;10.176;2022-08-11T01:55:39;102167.53;;;17.21;63.85
46394;BME280;32099;53.588;10.176;2022-08-11T01:58:11;102176.22;;;17.18;63.67
46394;BME280;32099;53.588;10.176;2022-08-11T02:00:51;102167.28;;;17.16;63.95
46394;BME280;32099;53.588;10.176;2022-08-11T02:03:33;102165.94;;;17.12;64.01
46394;BME280;32099;53.588;10.176;2022-08-11T02:06:27;102165.50;;;17.08;64.03
46394;BME280;32099;53.588;10.176;2022-08-11T02:11:49;102174.53;;;17.02;64.53
46394;BME280;32099;53.588;10.176;2022-08-11T02:14:22;102166.66;;;16.99;64.20
46394;BME280;32099;53.588;10.176;2022-08-11T02:22:18;102158.63;;;16.89;64.49
46394;BME280;32099;53.588;10.176;2022-08-11T02:25:06;102161.97;;;16.85;64.77
46394;BME280;32099;53.588;10.176;2022-08-11T02:30:05;102157.03;;;16.80;64.78
46394;BME280;32099;53.588;10.176;2022-08-11T02:32:46;102161.19;;;16.76;64.80
46394;BME280;32099;53.588;10.176;2022-08-11T02:35:37;102158.84;;;16.73;65.07
46394;BME280;32099;53.588;10.176;2022-08-11T02:40:48;102160.47;;;16.67;65.56
46394;BME280;32099;53.588;10.176;2022-08-11T02:46:17;102152.09;;;16.60;65.17
46394;BME280;32099;53.588;10.176;2022-08-11T02:48:55;102151.59;;;16.57;65.57
46394;BME280;32099;53.588;10.176;2022-08-11T02:51:43;102156.47;;;16.55;65.50
46394;BME280;32099;53.588;10.176;2022-08-11T02:54:24;102146.47;;;16.54;65.66
46394;BME280;32099;53.588;10.176;2022-08-11T02:56:59;102151.31;;;16.52;65.72
46394;BME280;32099;53.588;10.176;2022-08-11T02:59:27;102152.72;;;16.47;66.00
46394;BME280;32099;53.588;10.176;2022-08-11T03:05:14;102142.28;;;16.43;66.27
46394;BME280;32099;53.588;10.176;2022-08-11T03:08:02;102149.88;;;16.41;66.52
46394;BME280;32099;53.588;10.176;2022-08-11T03:13:35;102155.09;;;16.35;66.44
46394;BME280;32099;53.588;10.176;2022-08-11T03:16:31;102153.59;;;16.33;66.48
46394;BME280;32099;53.588;10.176;2022-08-11T03:24:24;102152.44;;;16.27;66.26
46394;BME280;32099;53.588;10.176;2022-08-11T03:27:09;102156.59;;;16.23;66.61
46394;BME280;32099;53.588;10.176;2022-08-11T03:29:45;102150.63;;;16.19;66.90
46394;BME280;32099;53.588;10.176;2022-08-11T03:32:28;102150.97;;;16.16;66.96
46394;BME280;32099;53.588;10.176;2022-08-11T03:34:54;102153.06;;;16.14;67.00
46394;BME280;32099;53.588;10.176;2022-08-11T03:37:24;102155.13;;;16.12;67.31
46394;BME280;32099;53.588;10.176;2022-08-11T03:40:15;102143.66;;;16.09;67.28
46394;BME280;32099;53.588;10.176;2022-08-11T03:43:06;102157.59;;;16.07;67.26
46394;BME280;32099;53.588;10.176;2022-08-11T03:45:40;102155.00;;;16.06;67.11
46394;BME280;32099;53.588;10.176;2022-08-11T03:48:18;102150.75;;;16.03;67.33
46394;BME280;32099;53.588;10.176;2022-08-11T03:53:31;102140.97;;;16.00;67.55
46394;BME280;32099;53.588;10.176;2022-08-11T03:56:11;102151.09;;;16.00;67.96
46394;BME280;32099;53.588;10.176;2022-08-11T03:58:57;102147.88;;;15.96;67.63
46394;BME280;32099;53.588;10.176;2022-08-11T04:12:16;102153.94;;;15.92;67.99
46394;BME280;32099;53.588;10.176;2022-08-11T04:22:50;102150.50;;;15.89;68.15
46394;BME280;32099;53.588;10.176;2022-08-11T04:25:25;102149.47;;;15.91;67.98
46394;BME280;32099;53.588;10.176;2022-08-11T04:30:39;102151.19;;;15.92;68.46
46394;BME280;32099;53.588;10.176;2022-08-11T04:33:21;102151.38;;;15.90;68.50
46394;BME280;32099;53.588;10.176;2022-08-11T04:49:27;102153.38;;;15.96;68.96
46394;BME280;32099;53.588;10.176;2022-08-11T04:52:27;102149.59;;;15.97;69.10
46394;BME280;32099;53.588;10.176;2022-08-11T04:55:30;102149.44;;;15.99;69.04
46394;BME280;32099;53.588;10.176;2022-08-11T05:09:39;102144.31;;;16.11;69.61
46394;BME280;32099;53.588;10.176;2022-08-11T05:12:14;102152.22;;;16.14;69.57
46394;BME280;32099;53.588;10.176;2022-08-11T05:14:48;102154.56;;;16.17;69.29
46394;BME280;32099;53.588;10.176;2022-08-11T05:17:37;102151.44;;;16.20;69.62
46394;BME280;32099;53.588;10.176;2022-08-11T05:20:22;102150.06;;;16.24;69.82
46394;BME280;32099;53.588;10.176;2022-08-11T05:23:07;102155.00;;;16.29;70.01
46394;BME280;32099;53.588;10.176;2022-08-11T05:25:53;102151.00;;;16.31;69.85
46394;BME280;32099;53.588;10.176;2022-08-11T05:28:59;102153.19;;;16.36;69.82
46394;BME280;32099;53.588;10.176;2022-08-11T05:31:45;102157.75;;;16.44;69.77
46394;BME280;32099;53.588;10.176;2022-08-11T05:34:50;102149.81;;;16.49;69.95
46394;BME280;32099;53.588;10.176;2022-08-11T05:40:08;102155.31;;;16.64;70.10
46394;BME280;32099;53.588;10.176;2022-08-11T05:42:54;102155.88;;;16.74;69.97
46394;BME280;32099;53.588;10.176;2022-08-11T05:45:39;102161.97;;;16.85;70.21
46394;BME280;32099;53.588;10.176;2022-08-11T05:48:27;102158.75;;;16.96;69.93
46394;BME280;32099;53.588;10.176;2022-08-11T05:51:12;102161.41;;;17.04;70.09
46394;BME280;32099;53.588;10.176;2022-08-11T05:53:57;102156.44;;;17.15;69.78
46394;BME280;32099;53.588;10.176;2022-08-11T05:56:43;102156.34;;;17.23;69.73
46394;BME280;32099;53.588;10.176;2022-08-11T05:59:15;102155.84;;;17.34;69.56
46394;BME280;32099;53.588;10.176;2022-08-11T06:01:42;102150.41;;;17.41;69.57
46394;BME280;32099;53.588;10.176;2022-08-11T06:04:10;102160.25;;;17.50;68.92
46394;BME280;32099;53.588;10.176;2022-08-11T06:06:45;102165.94;;;17.64;69.29
46394;BME280;32099;53.588;10.176;2022-08-11T06:09:11;102168.16;;;17.75;68.21
46394;BME280;32099;53.588;10.176;2022-08-11T06:11:38;102168.69;;;17.85;68.39
46394;BME280;32099;53.588;10.176;2022-08-11T06:14:06;102160.75;;;17.97;68.83
46394;BME280;32099;53.588;10.176;2022-08-11T06:16:31;102160.22;;;18.09;68.01
46394;BME280;32099;53.588;10.176;2022-08-11T06:18:56;102165.66;;;18.24;67.66
46394;BME280;32099;53.588;10.176;2022-08-11T06:21:22;102164.31;;;18.41;67.40
46394;BME280;32099;53.588;10.176;2022-08-11T06:23:47;102161.91;;;18.66;66.93
46394;BME280;32099;53.588;10.176;2022-08-11T06:26:13;102156.97;;;18.90;66.24
46394;BME280;32099;53.588;10.176;2022-08-11T06:28:40;102159.44;;;19.14;66.27
46394;BME280;32099;53.588;10.176;2022-08-11T06:31:12;102165.28;;;19.39;65.48
46394;BME280;32099;53.588;10.176;2022-08-11T06:33:44;102166.00;;;19.61;63.44
46394;BME280;32099;53.588;10.176;2022-08-11T06:36:15;102170.47;;;19.82;61.84
46394;BME280;32099;53.588;10.176;2022-08-11T06:38:48;102160.31;;;20.03;61.45
46394;BME280;32099;53.588;10.176;2022-08-11T06:41:38;102165.22;;;20.28;61.43
46394;BME280;32099;53.588;10.176;2022-08-11T06:46:36;102170.06;;;20.66;59.96
46394;BME280;32099;53.588;10.176;2022-08-11T06:49:09;102160.47;;;20.82;60.37
46394;BME280;32099;53.588;10.176;2022-08-11T06:51:59;102160.41;;;21.02;59.49
46394;BME280;32099;53.588;10.176;2022-08-11T06:54:26;102159.28;;;21.17;60.01
46394;BME280;32099;53.588;10.176;2022-08-11T06:56:53;102160.06;;;21.31;59.67
46394;BME280;32099;53.588;10.176;2022-08-11T06:59:37;102158.94;;;21.45;58.66
46394;BME280;32099;53.588;10.176;2022-08-11T07:02:41;102163.75;;;21.63;59.11
46394;BME280;32099;53.588;10.176;2022-08-11T07:05:10;102165.56;;;21.83;57.93
46394;BME280;32099;53.588;10.176;2022-08-11T07:07:56;102166.50;;;22.02;58.02
46394;BME280;32099;53.588;10.176;2022-08-11T07:13:39;102165.16;;;22.55;56.15
46394;BME280;32099;53.588;10.176;2022-08-11T07:16:25;102164.03;;;22.82;55.38
46394;BME280;32099;53.588;10.176;2022-08-11T07:18:52;102165.66;;;23.08;54.43
46394;BME280;32099;53.588;10.176;2022-08-11T07:21:43;102155.75;;;23.31;53.54
46394;BME280;32099;53.588;10.176;2022-08-11T07:24:29;102162.03;;;23.56;53.12
46394;BME280;32099;53.588;10.176;2022-08-11T07:27:16;102160.31;;;23.86;52.12
46394;BME280;32099;53.588;10.176;2022-08-11T07:30:02;102161.22;;;24.10;51.12
46394;BME280;32099;53.588;10.176;2022-08-11T07:32:30;102161.97;;;24.41;50.93
46394;BME280;32099;53.588;10.176;2022-08-11T07:34:58;102158.84;;;24.73;50.46
46394;BME280;32099;53.588;10.176;2022-08-11T07:37:27;102165.31;;;25.03;49.55
46394;BME280;32099;53.588;10.176;2022-08-11T07:39:55;102166.09;;;25.27;49.62
46394;BME280;32099;53.588;10.176;2022-08-11T07:42:24;102165.78;;;25.52;48.92
46394;BME280;32099;53.588;10.176;2022-08-11T07:44:51;102162.22;;;25.86;48.98
46394;BME280;32099;53.588;10.176;2022-08-11T07:47:36;102163.34;;;26.19;47.75
46394;BME280;32099;53.588;10.176;2022-08-11T07:50:20;102165.25;;;26.53;47.85
46394;BME280;32099;53.588;10.176;2022-08-11T07:53:05;102167.16;;;26.86;46.69
46394;BME280;32099;53.588;10.176;2022-08-11T07:55:30;102167.16;;;27.08;45.94
46394;BME280;32099;53.588;10.176;2022-08-11T07:57:57;102173.13;;;27.17;46.26
46394;BME280;32099;53.588;10.176;2022-08-11T08:00:42;102168.91;;;27.37;46.82
46394;BME280;32099;53.588;10.176;2022-08-11T08:03:30;102167.44;;;27.56;46.17
46394;BME280;32099;53.588;10.176;2022-08-11T08:06:15;102161.78;;;27.79;44.28
46394;BME280;32099;53.588;10.176;2022-08-11T08:08:59;102170.53;;;27.87;43.42
46394;BME280;32099;53.588;10.176;2022-08-11T08:11:43;102179.31;;;27.96;44.65
46394;BME280;32099;53.588;10.176;2022-08-11T08:14:27;102173.88;;;28.12;44.37
46394;BME280;32099;53.588;10.176;2022-08-11T08:17:12;102170.66;;;28.30;43.83
46394;BME280;32099;53.588;10.176;2022-08-11T08:19:56;102180.88;;;28.52;44.03
46394;BME280;32099;53.588;10.176;2022-08-11T08:22:22;102174.59;;;28.77;43.77
46394;BME280;32099;53.588;10.176;2022-08-11T08:24:47;102182.03;;;29.04;43.07
46394;BME280;32099;53.588;10.176;2022-08-11T08:27:13;102181.81;;;29.16;41.53
46394;BME280;32099;53.588;10.176;2022-08-11T08:29:39;102169.47;;;29.22;41.55
46394;BME280;32099;53.588;10.176;2022-08-11T08:32:23;102178.47;;;29.24;43.22
46394;BME280;32099;53.588;10.176;2022-08-11T08:34:51;102177.69;;;29.39;41.60
46394;BME280;32099;53.588;10.176;2022-08-11T08:37:19;102173.22;;;29.49;41.47
46394;BME280;32099;53.588;10.176;2022-08-11T08:39:45;102169.84;;;29.57;41.63
46394;BME280;32099;53.588;10.176;2022-08-11T08:42:12;102173.28;;;29.75;40.68
46394;BME280;32099;53.588;10.176;2022-08-11T08:44:42;102179.72;;;29.85;40.85
46394;BME280;32099;53.588;10.176;2022-08-11T08:47:09;102175.84;;;30.02;40.52
46394;BME280;32099;53.588;10.176;2022-08-11T08:49:37;102174.97;;;30.27;40.15
46394;BME280;32099;53.588;10.176;2022-08-11T08:52:04;102171.59;;;30.46;37.56
46394;BME280;32099;53.588;10.176;2022-08-11T08:54:31;102174.72;;;30.29;40.23
46394;BME280;32099;53.588;10.176;2022-08-11T08:56:58;102166.25;;;30.34;39.39
46394;BME280;32099;53.588;10.176;2022-08-11T08:59:27;102157.53;;;30.41;39.61
46394;BME280;32099;53.588;10.176;2022-08-11T09:02:03;102160.03;;;30.63;39.90
46394;BME280;32099;53.588;10.176;2022-08-11T09:04:29;102167.84;;;30.87;38.72
46394;BME280;32099;53.588;10.176;2022-08-11T09:06:56;102158.28;;;30.83;38.66
46394;BME280;32099;53.588;10.176;2022-08-11T09:09:22;102160.28;;;30.82;38.78
46394;BME280;32099;53.588;10.176;2022-08-11T09:11:47;102152.34;;;30.95;39.50
46394;BME280;32099;53.588;10.176;2022-08-11T09:14:20;102153.69;;;31.07;38.38
46394;BME280;32099;53.588;10.176;2022-08-11T09:16:45;102148.84;;;31.18;38.46
46394;BME280;32099;53.588;10.176;2022-08-11T09:19:14;102151.06;;;31.27;37.92
46394;BME280;32099;53.588;10.176;2022-08-11T09:21:45;102143.72;;;31.31;36.06
46394;BME280;32099;53.588;10.176;2022-08-11T09:24:31;102142.38;;;31.18;37.13
46394;BME280;32099;53.588;10.176;2022-08-11T09:27:16;102144.31;;;31.22;37.82
46394;BME280;32099;53.588;10.176;2022-08-11T09:29:42;102131.34;;;31.27;37.50
46394;BME280;32099;53.588;10.176;2022-08-11T09:32:07;102134.34;;;31.41;37.18
46394;BME280;32099;53.588;10.176;2022-08-11T09:34:33;102134.38;;;31.35;36.51
46394;BME280;32099;53.588;10.176;2022-08-11T09:37:00;102132.66;;;31.39;36.80
46394;BME280;32099;53.588;10.176;2022-08-11T09:39:44;102135.63;;;31.59;36.49
46394;BME280;32099;53.588;10.176;2022-08-11T09:42:27;102131.34;;;31.66;36.76
46394;BME280;32099;53.588;10.176;2022-08-11T09:45:13;102135.22;;;31.81;36.27
46394;BME280;32099;53.588;10.176;2022-08-11T09:47:39;102128.09;;;31.89;36.01
46394;BME280;32099;53.588;10.176;2022-08-11T09:50:08;102131.09;;;32.03;35.28
46394;BME280;32099;53.588;10.176;2022-08-11T09:52:38;102124.03;;;32.00;35.66
46394;BME280;32099;53.588;10.176;2022-08-11T09:55:04;102120.63;;;32.03;35.65
46394;BME280;32099;53.588;10.176;2022-08-11T09:57:39;102107.56;;;32.12;36.71
46394;BME280;32099;53.588;10.176;2022-08-11T10:00:33;102108.09;;;32.14;35.64
46394;BME280;32099;53.588;10.176;2022-08-11T10:03:02;102108.06;;;32.20;35.59
46394;BME280;32099;53.588;10.176;2022-08-11T10:05:31;102099.75;;;32.34;34.94
46394;BME280;32099;53.588;10.176;2022-08-11T10:08:15;102103.25;;;32.50;34.98
46394;BME280;32099;53.588;10.176;2022-08-11T10:10:42;102097.94;;;32.43;34.68
46394;BME280;32099;53.588;10.176;2022-08-11T10:13:10;102098.84;;;32.38;35.21
46394;BME280;32099;53.588;10.176;2022-08-11T10:15:38;102102.28;;;32.35;34.83
46394;BME280;32099;53.588;10.176;2022-08-11T10:18:08;102101.72;;;32.33;35.57
46394;BME280;32099;53.588;10.176;2022-08-11T10:21:02;102086.13;;;32.11;34.51
46394;BME280;32099;53.588;10.176;2022-08-11T10:23:31;102083.97;;;32.03;34.90
46394;BME280;32099;53.588;10.176;2022-08-11T10:26:16;102081.34;;;32.12;34.58
46394;BME280;32099;53.588;10.176;2022-08-11T10:29:00;102077.03;;;32.20;35.56
46394;BME280;32099;53.588;10.176;2022-08-11T10:31:26;102073.06;;;32.21;33.36
46394;BME280;32099;53.588;10.176;2022-08-11T10:34:11;102073.47;;;32.09;34.63
46394;BME280;32099;53.588;10.176;2022-08-11T10:36:38;102080.91;;;31.99;34.61
46394;BME280;32099;53.588;10.176;2022-08-11T10:39:09;102069.63;;;31.99;34.97
46394;BME280;32099;53.588;10.176;2022-08-11T10:41:41;102061.59;;;32.12;35.14
46394;BME280;32099;53.588;10.176;2022-08-11T10:44:26;102065.91;;;32.34;35.12
46394;BME280;32099;53.588;10.176;2022-08-11T10:46:51;102064.16;;;32.38;33.99
46394;BME280;32099;53.588;10.176;2022-08-11T10:49:35;102072.09;;;32.36;33.99
46394;BME280;32099;53.588;10.176;2022-08-11T10:52:00;102064.00;;;32.24;34.14
46394;BME280;32099;53.588;10.176;2022-08-11T10:54:45;102064.34;;;32.17;33.86
46394;BME280;32099;53.588;10.176;2022-08-11T10:57:30;102057.03;;;32.16;33.87
46394;BME280;32099;53.588;10.176;2022-08-11T11:00:13;102062.50;;;32.07;34.01
46394;BME280;32099;53.588;10.176;2022-08-11T11:02:43;102058.03;;;32.01;32.96
46394;BME280;32099;53.588;10.176;2022-08-11T11:05:11;102059.91;;;31.87;33.38
46394;BME280;32099;53.588;10.176;2022-08-11T11:07:49;102050.91;;;31.79;33.83
46394;BME280;32099;53.588;10.176;2022-08-11T11:10:16;102042.69;;;31.83;33.85
46394;BME280;32099;53.588;10.176;2022-08-11T11:12:45;102051.44;;;31.87;32.02
46394;BME280;32099;53.588;10.176;2022-08-11T11:15:30;102041.44;;;31.70;34.07
46394;BME280;32099;53.588;10.176;2022-08-11T11:18:19;102045.09;;;31.65;34.46
46394;BME280;32099;53.588;10.176;2022-08-11T11:21:18;102040.06;;;31.62;33.83
46394;BME280;32099;53.588;10.176;2022-08-11T11:26:16;102045.06;;;31.70;33.96
46394;BME280;32099;53.588;10.176;2022-08-11T11:38:59;102045.63;;;31.73;34.13
46394;BME280;32099;53.588;10.176;2022-08-11T11:41:25;102046.13;;;31.80;32.83
46394;BME280;32099;53.588;10.176;2022-08-11T11:43:54;102050.38;;;31.77;33.38
46394;BME280;32099;53.588;10.176;2022-08-11T11:46:21;102037.78;;;31.64;33.29
46394;BME280;32099;53.588;10.176;2022-08-11T11:48:46;102041.16;;;31.66;33.16
46394;BME280;32099;53.588;10.176;2022-08-11T11:51:12;102039.47;;;31.65;33.41
46394;BME280;32099;53.588;10.176;2022-08-11T11:53:37;102043.13;;;31.66;33.95
46394;BME280;32099;53.588;10.176;2022-08-11T11:56:03;102042.56;;;31.64;33.52
46394;BME280;32099;53.588;10.176;2022-08-11T11:58:29;102041.44;;;31.65;33.76
46394;BME280;32099;53.588;10.176;2022-08-11T12:01:20;102036.66;;;31.65;33.49
46394;BME280;32099;53.588;10.176;2022-08-11T12:03:49;102031.84;;;31.66;32.80
46394;BME280;32099;53.588;10.176;2022-08-11T12:06:16;102031.84;;;31.66;32.53
46394;BME280;32099;53.588;10.176;2022-08-11T12:08:41;102034.09;;;31.69;32.88
46394;BME280;32099;53.588;10.176;2022-08-11T12:11:10;102031.28;;;31.64;32.33
46394;BME280;32099;53.588;10.176;2022-08-11T12:13:55;102030.31;;;31.49;33.46
46394;BME280;32099;53.588;10.176;2022-08-11T12:16:21;102026.31;;;31.55;32.78
46394;BME280;32099;53.588;10.176;2022-08-11T12:18:51;102019.44;;;31.67;32.77
46394;BME280;32099;53.588;10.176;2022-08-11T12:21:18;102019.88;;;31.84;32.64
46394;BME280;32099;53.588;10.176;2022-08-11T12:23:44;102022.81;;;31.98;32.71
46394;BME280;32099;53.588;10.176;2022-08-11T12:26:29;102017.53;;;32.16;32.12
46394;BME280;32099;53.588;10.176;2022-08-11T12:29:12;102017.75;;;32.25;31.63
46394;BME280;32099;53.588;10.176;2022-08-11T12:31:38;102016.47;;;32.36;32.03
46394;BME280;32099;53.588;10.176;2022-08-11T12:34:05;102009.28;;;32.49;32.18
46394;BME280;32099;53.588;10.176;2022-08-11T12:36:32;102007.69;;;32.62;31.64
46394;BME280;32099;53.588;10.176;2022-08-11T12:38:59;102002.66;;;32.78;31.46
46394;BME280;32099;53.588;10.176;2022-08-11T12:41:24;102008.09;;;32.94;30.76
46394;BME280;32099;53.588;10.176;2022-08-11T12:44:09;101999.25;;;33.00;31.73
46394;BME280;32099;53.588;10.176;2022-08-11T12:46:55;102004.63;;;33.16;30.84
46394;BME280;32099;53.588;10.176;2022-08-11T12:49:21;101995.16;;;33.26;31.33
46394;BME280;32099;53.588;10.176;2022-08-11T12:52:09;101990.25;;;33.31;28.69
46394;BME280;32099;53.588;10.176;2022-08-11T12:54:47;101984.09;;;33.10;29.13
46394;BME280;32099;53.588;10.176;2022-08-11T12:57:16;101986.38;;;33.08;31.25
46394;BME280;32099;53.588;10.176;2022-08-11T13:00:00;101985.81;;;33.25;31.42
46394;BME280;32099;53.588;10.176;2022-08-11T13:02:47;101977.44;;;33.39;31.16
46394;BME280;32099;53.588;10.176;2022-08-11T13:05:32;101973.50;;;33.54;30.28
46394;BME280;32099;53.588;10.176;2022-08-11T13:07:59;101975.03;;;33.46;31.53
46394;BME280;32099;53.588;10.176;2022-08-11T13:10:25;101973.44;;;33.73;31.43
46394;BME280;32099;53.588;10.176;2022-08-11T13:13:09;101965.28;;;34.27;31.46
46394;BME280;32099;53.588;10.176;2022-08-11T13:15:35;101967.31;;;34.64;30.91
46394;BME280;32099;53.588;10.176;2022-08-11T13:18:00;101962.66;;;35.18;28.24
46394;BME280;32099;53.588;10.176;2022-08-11T13:20:26;101967.00;;;35.47;28.69
46394;BME280;32099;53.588;10.176;2022-08-11T13:22:52;101960.13;;;36.03;29.61
46394;BME280;32099;53.588;10.176;2022-08-11T13:25:20;101955.22;;;36.43;29.73
46394;BME280;32099;53.588;10.176;2022-08-11T13:27:46;101957.88;;;37.36;28.21
46394;BME280;32099;53.588;10.176;2022-08-11T13:30:12;101954.19;;;38.52;27.78
46394;BME280;32099;53.588;10.176;2022-08-11T13:33:10;101945.84;;;40.31;25.88
46394;BME280;32099;53.588;10.176;2022-08-11T13:35:35;101952.16;;;41.67;25.09
46394;BME280;32099;53.588;10.176;2022-08-11T13:38:01;101952.75;;;42.60;23.69
46394;BME280;32099;53.588;10.176;2022-08-11T13:40:27;101952.53;;;43.08;23.31
46394;BME280;32099;53.588;10.176;2022-08-11T13:42:53;101953.81;;;44.91;21.50
46394;BME280;32099;53.588;10.176;2022-08-11T13:45:18;101942.53;;;46.03;20.22
46394;BME280;32099;53.588;10.176;2022-08-11T13:47:46;101943.44;;;47.10;19.30
46394;BME280;32099;53.588;10.176;2022-08-11T13:50:13;101942.44;;;48.69;18.18
46394;BME280;32099;53.588;10.176;2022-08-11T13:52:38;101942.56;;;50.12;16.58
46394;BME280;32099;53.588;10.176;2022-08-11T13:55:06;101945.00;;;50.83;15.71
46394;BME280;32099;53.588;10.176;2022-08-11T13:57:31;101949.72;;;51.01;15.16
46394;BME280;32099;53.588;10.176;2022-08-11T13:59:57;101948.38;;;50.78;15.18
46394;BME280;32099;53.588;10.176;2022-08-11T14:02:34;101935.00;;;49.84;14.99
46394;BME280;32099;53.588;10.176;2022-08-11T14:05:11;101929.06;;;47.53;16.54
46394;BME280;32099;53.588;10.176;2022-08-11T14:07:38;101917.72;;;43.79;19.41
46394;BME280;32099;53.588;10.176;2022-08-11T14:10:05;101913.44;;;41.25;21.60
46394;BME280;32099;53.588;10.176;2022-08-11T14:12:32;101900.88;;;39.08;22.05
46394;BME280;32099;53.588;10.176;2022-08-11T14:15:18;101899.41;;;36.83;25.62
46394;BME280;32099;53.588;10.176;2022-08-11T14:17:46;101904.25;;;35.72;27.35
46394;BME280;32099;53.588;10.176;2022-08-11T14:20:14;101892.06;;;35.08;27.05
46394;BME280;32099;53.588;10.176;2022-08-11T14:22:40;101894.56;;;34.64;27.77
46394;BME280;32099;53.588;10.176;2022-08-11T14:25:07;101894.06;;;34.34;27.90
46394;BME280;32099;53.588;10.176;2022-08-11T14:27:32;101877.41;;;33.96;27.94
46394;BME280;32099;53.588;10.176;2022-08-11T14:29:58;101881.75;;;33.60;28.57
46394;BME280;32099;53.588;10.176;2022-08-11T14:32:24;101884.19;;;33.39;29.37
46394;BME280;32099;53.588;10.176;2022-08-11T14:34:49;101884.97;;;33.26;29.32
46394;BME280;32099;53.588;10.176;2022-08-11T14:37:18;101884.28;;;33.15;29.66
46394;BME280;32099;53.588;10.176;2022-08-11T14:39:45;101874.97;;;33.00;28.96
46394;BME280;32099;53.588;10.176;2022-08-11T14:42:11;101883.38;;;32.86;30.34
46394;BME280;32099;53.588;10.176;2022-08-11T14:44:56;101883.16;;;32.83;30.59
46394;BME280;32099;53.588;10.176;2022-08-11T14:47:42;101879.50;;;32.63;31.14
46394;BME280;32099;53.588;10.176;2022-08-11T14:50:12;101877.06;;;32.56;30.82
46394;BME280;32099;53.588;10.176;2022-08-11T14:55:22;101873.47;;;32.51;31.12
46394;BME280;32099;53.588;10.176;2022-08-11T14:58:07;101872.03;;;32.34;30.96
46394;BME280;32099;53.588;10.176;2022-08-11T15:00:33;101864.56;;;32.24;31.33
46394;BME280;32099;53.588;10.176;2022-08-11T15:02:58;101867.94;;;32.26;31.91
46394;BME280;32099;53.588;10.176;2022-08-11T15:05:40;101878.91;;;32.28;31.13
46394;BME280;32099;53.588;10.176;2022-08-11T15:08:08;101868.31;;;32.14;31.74
46394;BME280;32099;53.588;10.176;2022-08-11T15:10:33;101862.47;;;32.11;32.08
46394;BME280;32099;53.588;10.176;2022-08-11T15:12:58;101864.19;;;32.07;31.58
46394;BME280;32099;53.588;10.176;2022-08-11T15:15:24;101872.13;;;32.05;31.52
46394;BME280;32099;53.588;10.176;2022-08-11T15:18:09;101863.97;;;32.03;31.84
46394;BME280;32099;53.588;10.176;2022-08-11T15:20:35;101853.16;;;31.91;31.40